createdAt,value
2022-07-31T00:01:15.106Z,12.25
2022-07-31T00:03:41.734Z,9.20
2022-07-31T00:06:08.110Z,9.77
2022-07-31T00:08:34.951Z,11.07
2022-07-31T00:11:01.255Z,11.77
2022-07-31T00:13:57.271Z,8.18
2022-07-31T00:16:14.217Z,10.80
2022-07-31T00:18:43.643Z,13.65
2022-07-31T00:21:10.559Z,10.27
2022-07-31T00:23:36.839Z,9.93
2022-07-31T00:26:03.126Z,10.65
2022-07-31T00:28:29.432Z,9.73
2022-07-31T00:30:55.711Z,8.73
2022-07-31T00:33:22.015Z,12.90
2022-07-31T00:35:48.324Z,8.73
2022-07-31T00:38:29.869Z,8.50
2022-07-31T00:40:56.626Z,8.15
2022-07-31T00:43:22.949Z,10.68
2022-07-31T00:45:59.147Z,9.25
2022-07-31T00:48:25.705Z,9.07
2022-07-31T00:50:52.023Z,9.35
2022-07-31T00:53:18.326Z,7.53
2022-07-31T00:55:51.464Z,10.30
2022-07-31T00:58:18.528Z,10.55
2022-07-31T01:00:44.885Z,10.23
2022-07-31T01:03:11.224Z,9.32
2022-07-31T01:05:37.536Z,9.32
2022-07-31T01:08:03.924Z,15.43
2022-07-31T01:10:30.761Z,11.65
2022-07-31T01:12:57.400Z,14.95
2022-07-31T01:15:23.756Z,12.15
2022-07-31T01:17:50.076Z,12.80
2022-07-31T01:20:16.393Z,12.88
2022-07-31T01:22:42.681Z,14.13
2022-07-31T01:25:09.027Z,13.85
2022-07-31T01:27:49.151Z,14.60
2022-07-31T01:30:16.263Z,13.07
2022-07-31T01:32:42.594Z,12.15
2022-07-31T01:35:08.912Z,15.38
2022-07-31T01:37:35.224Z,12.73
2022-07-31T01:40:01.526Z,12.85
2022-07-31T01:42:27.852Z,11.88
2022-07-31T01:44:54.191Z,13.63
2022-07-31T01:47:20.954Z,17.48
2022-07-31T01:49:47.284Z,14.55
2022-07-31T01:52:13.589Z,15.63
2022-07-31T01:54:39.905Z,14.68
2022-07-31T01:57:06.215Z,12.02
2022-07-31T01:59:32.544Z,12.88
2022-07-31T02:01:59.184Z,12.32
2022-07-31T02:04:26.014Z,11.32
2022-07-31T02:06:52.306Z,12.98
2022-07-31T02:09:18.611Z,13.93
2022-07-31T02:11:54.654Z,11.45
2022-07-31T02:14:21.440Z,17.88
2022-07-31T02:16:48.187Z,13.40
2022-07-31T02:19:14.900Z,15.07
2022-07-31T02:21:41.196Z,13.10
2022-07-31T02:24:07.502Z,11.93
2022-07-31T02:26:33.790Z,11.63
2022-07-31T02:29:00.100Z,11.18
2022-07-31T02:31:26.531Z,15.60
2022-07-31T02:33:52.839Z,12.85
2022-07-31T02:36:19.153Z,15.57
2022-07-31T02:38:45.450Z,11.40
2022-07-31T02:41:11.758Z,11.88
2022-07-31T02:43:38.068Z,12.80
2022-07-31T02:46:04.354Z,11.63
2022-07-31T02:48:30.659Z,11.93
2022-07-31T02:50:56.978Z,15.15
2022-07-31T02:53:23.292Z,11.45
2022-07-31T02:55:49.602Z,11.85
2022-07-31T02:58:15.923Z,14.82
2022-07-31T03:00:42.271Z,15.40
2022-07-31T03:03:08.656Z,11.45
2022-07-31T03:05:34.944Z,10.13
2022-07-31T03:08:01.263Z,12.23
2022-07-31T03:10:27.550Z,14.00
2022-07-31T03:12:53.870Z,11.40
2022-07-31T03:15:20.155Z,18.17
2022-07-31T03:17:46.586Z,12.05
2022-07-31T03:20:12.870Z,16.40
2022-07-31T03:22:39.884Z,10.50
2022-07-31T03:25:06.183Z,10.55
2022-07-31T03:27:32.500Z,16.30
2022-07-31T03:29:58.788Z,12.10
2022-07-31T03:32:25.094Z,13.02
2022-07-31T03:34:51.390Z,12.75
2022-07-31T03:37:17.688Z,13.77
2022-07-31T03:39:43.984Z,12.43
2022-07-31T03:42:13.107Z,13.23
2022-07-31T03:44:45.616Z,14.45
2022-07-31T03:47:11.969Z,14.30
2022-07-31T03:49:38.330Z,12.02
2022-07-31T03:52:08.577Z,12.18
2022-07-31T03:54:37.840Z,14.93
2022-07-31T03:57:04.130Z,14.75
2022-07-31T03:59:32.376Z,11.73
2022-07-31T04:02:06.810Z,11.77
2022-07-31T04:04:33.226Z,13.95
2022-07-31T04:06:59.544Z,13.68
2022-07-31T04:09:25.830Z,14.45
2022-07-31T04:11:52.125Z,12.82
2022-07-31T04:14:18.434Z,15.00
2022-07-31T04:16:44.714Z,11.98
2022-07-31T04:19:11.017Z,14.23
2022-07-31T04:21:37.348Z,13.38
2022-07-31T04:24:03.672Z,12.88
2022-07-31T04:26:29.983Z,13.23
2022-07-31T04:28:56.277Z,14.20
2022-07-31T04:31:23.397Z,16.00
2022-07-31T04:33:54.527Z,11.38
2022-07-31T04:36:29.668Z,14.00
2022-07-31T04:38:57.008Z,12.80
2022-07-31T04:41:23.331Z,10.27
2022-07-31T04:43:49.610Z,14.00
2022-07-31T04:46:17.186Z,16.33
2022-07-31T04:48:44.274Z,16.67
2022-07-31T04:51:11.248Z,14.33
2022-07-31T04:53:41.294Z,11.18
2022-07-31T04:56:26.055Z,13.68
2022-07-31T04:58:52.378Z,13.88
2022-07-31T05:01:18.702Z,12.32
2022-07-31T05:03:45.048Z,11.80
2022-07-31T05:06:11.390Z,13.18
2022-07-31T05:08:38.327Z,12.85
2022-07-31T05:11:23.028Z,11.43
2022-07-31T05:13:49.568Z,11.93
2022-07-31T05:16:15.864Z,12.10
2022-07-31T05:18:42.209Z,11.98
2022-07-31T05:21:08.619Z,10.30
2022-07-31T05:23:34.922Z,14.32
2022-07-31T05:26:01.889Z,11.02
2022-07-31T05:28:30.041Z,15.70
2022-07-31T05:30:56.595Z,9.98
2022-07-31T05:33:22.890Z,10.73
2022-07-31T05:35:49.206Z,9.88
2022-07-31T05:38:15.500Z,9.85
2022-07-31T05:40:41.809Z,11.00
2022-07-31T05:43:08.118Z,12.25
2022-07-31T05:45:34.419Z,8.95
2022-07-31T05:48:00.710Z,10.43
2022-07-31T05:50:27.002Z,12.27
2022-07-31T05:52:53.301Z,9.65
2022-07-31T05:55:19.583Z,10.38
2022-07-31T05:57:45.866Z,10.88
2022-07-31T06:00:12.183Z,9.55
2022-07-31T06:02:38.480Z,12.77
2022-07-31T06:05:04.772Z,9.70
2022-07-31T06:07:31.057Z,7.78
2022-07-31T06:09:57.376Z,8.02
2022-07-31T06:12:23.660Z,6.75
2022-07-31T06:14:49.966Z,8.00
2022-07-31T06:17:16.274Z,9.02
2022-07-31T06:19:42.604Z,5.15
2022-07-31T06:22:09.207Z,4.85
2022-07-31T06:24:35.715Z,4.88
2022-07-31T06:27:04.663Z,4.13
2022-07-31T06:29:41.313Z,4.40
2022-07-31T06:32:08.843Z,7.35
2022-07-31T06:34:35.157Z,5.07
2022-07-31T06:37:01.473Z,9.23
2022-07-31T06:39:28.639Z,5.78
2022-07-31T06:42:14.069Z,6.53
2022-07-31T06:44:45.954Z,4.00
2022-07-31T06:47:13.725Z,3.50
2022-07-31T06:49:42.284Z,6.80
2022-07-31T06:52:08.654Z,5.05
2022-07-31T06:54:34.971Z,6.00
2022-07-31T06:57:01.258Z,4.47
2022-07-31T06:59:39.942Z,5.38
2022-07-31T07:02:07.251Z,5.35
2022-07-31T07:04:56.481Z,5.60
2022-07-31T07:07:20.422Z,3.83
2022-07-31T07:09:46.735Z,7.28
2022-07-31T07:12:16.659Z,4.05
2022-07-31T07:14:43.396Z,4.70
2022-07-31T07:17:09.691Z,3.88
2022-07-31T07:19:36.013Z,6.50
2022-07-31T07:22:02.730Z,4.20
2022-07-31T07:24:29.165Z,4.33
2022-07-31T07:26:55.460Z,4.15
2022-07-31T07:29:21.800Z,4.40
2022-07-31T07:31:48.102Z,6.65
2022-07-31T07:34:14.425Z,4.15
2022-07-31T07:36:40.863Z,4.30
2022-07-31T07:39:07.284Z,3.88
2022-07-31T07:41:33.583Z,5.53
2022-07-31T07:43:59.893Z,5.38
2022-07-31T07:46:26.217Z,4.00
2022-07-31T07:48:52.877Z,4.65
2022-07-31T07:51:19.431Z,5.40
2022-07-31T07:53:45.715Z,4.15
2022-07-31T07:56:12.016Z,4.68
2022-07-31T07:58:38.318Z,7.80
2022-07-31T08:01:04.722Z,4.80
2022-07-31T08:03:48.885Z,5.32
2022-07-31T08:06:17.408Z,6.85
2022-07-31T08:08:43.692Z,4.85
2022-07-31T08:11:09.980Z,7.07
2022-07-31T08:13:36.285Z,4.97
2022-07-31T08:16:05.301Z,5.18
2022-07-31T08:18:31.822Z,6.40
2022-07-31T08:20:58.111Z,4.50
2022-07-31T08:23:24.418Z,8.77
2022-07-31T08:25:51.340Z,6.25
2022-07-31T08:28:19.354Z,6.47
2022-07-31T08:30:50.266Z,6.68
2022-07-31T08:33:16.581Z,4.85
2022-07-31T08:35:44.787Z,5.30
2022-07-31T08:38:16.909Z,6.78
2022-07-31T08:40:43.818Z,6.15
2022-07-31T08:43:25.162Z,5.57
2022-07-31T08:45:56.817Z,4.40
2022-07-31T08:48:23.114Z,5.18
2022-07-31T08:50:53.681Z,5.13
2022-07-31T08:53:20.225Z,3.80
2022-07-31T08:55:56.200Z,5.28
2022-07-31T08:58:23.900Z,4.72
2022-07-31T09:00:51.131Z,4.10
2022-07-31T09:03:17.534Z,4.38
2022-07-31T09:05:43.842Z,4.10
2022-07-31T09:08:14.557Z,4.75
2022-07-31T09:10:45.049Z,6.38
2022-07-31T09:13:15.512Z,4.65
2022-07-31T09:15:41.858Z,4.53
2022-07-31T09:18:08.142Z,4.25
2022-07-31T09:20:34.431Z,4.85
2022-07-31T09:23:00.728Z,4.68
2022-07-31T09:25:27.027Z,13.82
2022-07-31T09:27:53.314Z,4.05
2022-07-31T09:30:19.614Z,4.40
2022-07-31T09:32:46.023Z,3.80
2022-07-31T09:35:12.405Z,5.45
2022-07-31T09:37:39.242Z,4.80
2022-07-31T09:40:05.506Z,4.00
2022-07-31T09:42:34.280Z,7.10
2022-07-31T09:45:00.590Z,3.95
2022-07-31T09:47:27.935Z,5.82
2022-07-31T09:49:54.487Z,5.97
2022-07-31T09:52:20.790Z,4.68
2022-07-31T09:54:47.718Z,3.88
2022-07-31T09:57:14.091Z,4.28
2022-07-31T09:59:40.389Z,6.60
2022-07-31T10:02:06.691Z,5.68
2022-07-31T10:04:33.002Z,5.38
2022-07-31T10:06:59.328Z,4.10
2022-07-31T10:09:25.618Z,5.00
2022-07-31T10:11:52.095Z,3.60
2022-07-31T10:14:18.382Z,3.92
2022-07-31T10:16:44.681Z,3.33
2022-07-31T10:19:11.605Z,3.53
2022-07-31T10:21:37.925Z,4.50
2022-07-31T10:24:04.249Z,5.53
2022-07-31T10:26:57.743Z,4.55
2022-07-31T10:29:17.249Z,7.37
2022-07-31T10:31:43.534Z,3.53
2022-07-31T10:34:09.855Z,3.80
2022-07-31T10:36:37.151Z,4.80
2022-07-31T10:39:03.485Z,6.13
2022-07-31T10:41:32.304Z,4.90
2022-07-31T10:43:58.594Z,6.40
2022-07-31T10:46:24.889Z,4.47
2022-07-31T10:48:51.249Z,5.55
2022-07-31T10:51:17.669Z,5.80
2022-07-31T10:53:50.918Z,5.28
2022-07-31T10:56:18.957Z,7.82
2022-07-31T10:58:45.278Z,5.90
2022-07-31T11:01:12.139Z,5.95
2022-07-31T11:03:46.292Z,9.90
2022-07-31T11:06:12.594Z,6.55
2022-07-31T11:08:38.904Z,7.47
2022-07-31T11:11:05.258Z,8.25
2022-07-31T11:13:36.832Z,5.65
2022-07-31T11:16:03.596Z,5.95
2022-07-31T11:18:34.343Z,7.70
2022-07-31T11:21:13.548Z,3.90
2022-07-31T11:23:57.720Z,4.43
2022-07-31T11:26:32.838Z,8.50
2022-07-31T11:30:01.031Z,4.88
2022-07-31T11:31:48.754Z,5.13
2022-07-31T11:34:15.084Z,6.53
2022-07-31T11:36:41.362Z,3.35
2022-07-31T11:39:09.305Z,6.68
2022-07-31T11:41:40.453Z,7.15
2022-07-31T11:44:10.998Z,5.35
2022-07-31T11:46:38.000Z,6.38
2022-07-31T11:49:04.953Z,4.15
2022-07-31T11:51:31.279Z,4.47
2022-07-31T11:53:57.957Z,4.78
2022-07-31T11:56:24.288Z,4.87
2022-07-31T11:58:50.665Z,6.28
2022-07-31T12:01:16.968Z,5.28
2022-07-31T12:03:43.284Z,6.15
2022-07-31T12:06:09.905Z,4.93
2022-07-31T12:08:36.575Z,4.53
2022-07-31T12:11:02.856Z,9.68
2022-07-31T12:13:29.160Z,4.20
2022-07-31T12:15:55.473Z,9.48
2022-07-31T12:18:21.788Z,5.35
2022-07-31T12:20:48.082Z,2.58
2022-07-31T12:23:41.161Z,3.58
2022-07-31T12:28:28.943Z,3.22
2022-07-31T12:30:55.243Z,3.33
2022-07-31T12:33:21.554Z,4.63
2022-07-31T12:35:55.787Z,5.32
2022-07-31T12:38:38.294Z,6.35
2022-07-31T12:41:07.732Z,6.25
2022-07-31T12:43:35.851Z,3.47
2022-07-31T12:46:05.186Z,3.83
2022-07-31T12:48:36.264Z,3.42
2022-07-31T12:51:05.032Z,4.10
2022-07-31T12:53:31.329Z,2.85
2022-07-31T12:55:57.662Z,4.47
2022-07-31T12:58:23.975Z,4.00
2022-07-31T13:00:50.395Z,3.83
2022-07-31T13:03:16.691Z,4.03
2022-07-31T13:05:42.992Z,3.10
2022-07-31T13:08:09.286Z,2.78
2022-07-31T13:10:35.645Z,3.63
2022-07-31T13:13:01.955Z,3.08
2022-07-31T13:15:31.306Z,5.72
2022-07-31T13:17:57.596Z,6.50
2022-07-31T13:20:23.912Z,6.78
2022-07-31T13:22:50.205Z,2.85
2022-07-31T13:25:16.832Z,2.65
2022-07-31T13:27:43.079Z,2.43
2022-07-31T13:30:09.379Z,5.38
2022-07-31T13:32:35.700Z,3.05
2022-07-31T13:35:26.485Z,5.00
2022-07-31T13:37:48.785Z,5.23
2022-07-31T13:40:15.305Z,3.40
2022-07-31T13:42:41.591Z,3.80
2022-07-31T13:45:08.823Z,2.40
2022-07-31T13:47:50.444Z,2.58
2022-07-31T13:50:18.154Z,3.38
2022-07-31T13:52:44.678Z,5.07
2022-07-31T13:55:11.022Z,2.58
2022-07-31T13:57:37.342Z,4.45
2022-07-31T14:00:03.642Z,2.50
2022-07-31T14:02:30.007Z,2.67
2022-07-31T14:04:56.362Z,3.22
2022-07-31T14:07:23.762Z,2.22
2022-07-31T14:10:10.051Z,3.00
2022-07-31T14:12:36.336Z,2.10
2022-07-31T14:15:04.367Z,2.00
2022-07-31T14:17:30.865Z,2.10
2022-07-31T14:19:57.181Z,6.18
2022-07-31T14:22:23.673Z,2.00
2022-07-31T14:24:50.800Z,2.30
2022-07-31T14:27:17.732Z,5.57
2022-07-31T14:29:44.234Z,2.72
2022-07-31T14:32:10.524Z,5.53
2022-07-31T14:34:36.811Z,2.40
2022-07-31T14:37:03.373Z,2.30
2022-07-31T14:39:29.980Z,2.00
2022-07-31T14:41:56.285Z,2.85
2022-07-31T14:44:28.468Z,4.30
2022-07-31T14:46:55.385Z,2.13
2022-07-31T14:49:21.934Z,2.28
2022-07-31T14:51:48.297Z,2.67
2022-07-31T14:54:14.634Z,2.63
2022-07-31T14:57:00.127Z,3.92
2022-07-31T14:59:27.143Z,2.70
2022-07-31T15:01:53.434Z,3.00
2022-07-31T15:04:19.736Z,2.45
2022-07-31T15:06:56.359Z,1.50
2022-07-31T15:09:32.291Z,1.77
2022-07-31T15:12:01.099Z,1.77
2022-07-31T15:14:27.928Z,1.73
2022-07-31T15:16:54.254Z,1.88
2022-07-31T15:19:20.635Z,1.90
2022-07-31T15:22:09.505Z,1.50
2022-07-31T15:24:33.133Z,1.80
2022-07-31T15:26:59.438Z,1.73
2022-07-31T15:29:25.726Z,1.50
2022-07-31T15:32:11.940Z,2.43
2022-07-31T15:34:38.254Z,2.50
2022-07-31T15:37:04.715Z,1.23
2022-07-31T15:39:31.157Z,2.27
2022-07-31T15:41:58.089Z,1.50
2022-07-31T15:44:24.375Z,1.50
2022-07-31T15:46:50.663Z,2.60
2022-07-31T15:49:16.987Z,1.42
2022-07-31T15:51:43.324Z,5.68
2022-07-31T15:54:09.678Z,1.60
2022-07-31T15:56:35.972Z,3.00
2022-07-31T15:59:02.270Z,2.58
2022-07-31T16:01:28.639Z,1.52
2022-07-31T16:03:55.000Z,3.40
2022-07-31T16:06:28.027Z,1.93
2022-07-31T16:08:58.468Z,1.63
2022-07-31T16:11:24.909Z,2.33
2022-07-31T16:14:11.217Z,2.15
2022-07-31T16:16:37.561Z,2.95
2022-07-31T16:19:04.208Z,1.70
2022-07-31T16:21:30.470Z,1.95
2022-07-31T16:23:56.846Z,1.88
2022-07-31T16:26:23.146Z,2.38
2022-07-31T16:28:53.725Z,2.25
2022-07-31T16:31:29.952Z,4.40
2022-07-31T16:33:57.153Z,4.07
2022-07-31T16:36:24.704Z,1.90
2022-07-31T16:41:38.675Z,2.03
2022-07-31T16:44:21.063Z,3.17
2022-07-31T16:46:51.384Z,1.92
2022-07-31T16:49:35.448Z,1.60
2022-07-31T16:52:03.305Z,4.60
2022-07-31T16:54:29.640Z,2.20
2022-07-31T16:56:55.955Z,1.90
2022-07-31T16:59:22.239Z,1.95
2022-07-31T17:01:58.007Z,1.90
2022-07-31T17:04:27.094Z,2.47
2022-07-31T17:06:53.413Z,1.90
2022-07-31T17:09:19.720Z,3.03
2022-07-31T17:11:46.024Z,2.80
2022-07-31T17:14:12.323Z,1.80
2022-07-31T17:16:41.249Z,2.00
2022-07-31T17:19:10.016Z,2.10
2022-07-31T17:21:43.773Z,3.60
2022-07-31T17:24:10.316Z,3.42
2022-07-31T17:26:42.472Z,1.83
2022-07-31T17:29:08.770Z,1.50
2022-07-31T17:31:35.084Z,1.88
2022-07-31T17:34:03.805Z,2.40
2022-07-31T17:36:35.586Z,2.70
2022-07-31T17:39:01.880Z,1.70
2022-07-31T17:41:28.186Z,2.10
2022-07-31T17:43:54.594Z,1.75
2022-07-31T17:46:28.157Z,4.85
2022-07-31T17:49:01.356Z,4.55
2022-07-31T17:51:27.904Z,3.63
2022-07-31T17:54:00.306Z,4.22
2022-07-31T17:56:26.898Z,3.08
2022-07-31T17:58:53.256Z,2.55
2022-07-31T18:01:19.628Z,5.60
2022-07-31T18:03:46.111Z,2.67
2022-07-31T18:06:12.398Z,4.43
2022-07-31T18:08:38.693Z,3.20
2022-07-31T18:11:06.444Z,2.20
2022-07-31T18:13:39.298Z,1.98
2022-07-31T18:16:14.744Z,1.85
2022-07-31T18:18:41.035Z,3.88
2022-07-31T18:21:07.334Z,2.88
2022-07-31T18:23:33.624Z,3.55
2022-07-31T18:26:00.366Z,1.63
2022-07-31T18:28:26.595Z,1.93
2022-07-31T18:30:52.888Z,1.85
2022-07-31T18:33:19.196Z,1.50
2022-07-31T18:35:45.495Z,3.53
2022-07-31T18:38:11.783Z,3.95
2022-07-31T18:40:38.074Z,1.83
2022-07-31T18:43:05.968Z,3.42
2022-07-31T18:45:32.268Z,1.95
2022-07-31T18:47:58.588Z,1.85
2022-07-31T18:51:01.667Z,2.50
2022-07-31T18:53:11.352Z,2.17
2022-07-31T18:55:37.651Z,2.97
2022-07-31T18:58:03.945Z,2.13
2022-07-31T19:00:30.562Z,1.45
2022-07-31T19:02:56.872Z,2.00
2022-07-31T19:05:23.291Z,1.85
2022-07-31T19:07:49.612Z,1.50
2022-07-31T19:10:29.383Z,5.53
2022-07-31T19:12:57.775Z,1.92
2022-07-31T19:15:24.087Z,3.05
2022-07-31T19:17:50.536Z,3.10
2022-07-31T19:20:56.170Z,5.57
2022-07-31T19:23:03.754Z,2.13
2022-07-31T19:26:02.247Z,2.05
2022-07-31T19:28:20.551Z,7.10
2022-07-31T19:30:53.003Z,4.10
2022-07-31T19:33:19.698Z,1.67
2022-07-31T19:35:58.313Z,1.93
2022-07-31T19:38:26.901Z,6.53
2022-07-31T19:40:53.216Z,3.53
2022-07-31T19:43:20.301Z,5.53
2022-07-31T19:45:58.718Z,2.15
2022-07-31T19:48:33.175Z,2.08
2022-07-31T19:50:59.470Z,2.92
2022-07-31T19:53:25.794Z,3.28
2022-07-31T19:55:52.113Z,2.97
2022-07-31T19:58:18.423Z,2.83
2022-07-31T20:00:44.889Z,2.83
2022-07-31T20:03:11.227Z,6.15
2022-07-31T20:05:37.657Z,4.03
2022-07-31T20:08:03.954Z,2.35
2022-07-31T20:10:30.244Z,4.90
2022-07-31T20:12:56.535Z,2.90
2022-07-31T20:15:22.824Z,2.45
2022-07-31T20:17:49.168Z,2.67
2022-07-31T20:20:16.358Z,5.50
2022-07-31T20:22:42.779Z,2.72
2022-07-31T20:25:12.051Z,1.90
2022-07-31T20:27:46.579Z,2.58
2022-07-31T20:30:12.896Z,3.40
2022-07-31T20:32:39.193Z,2.22
2022-07-31T20:35:47.306Z,2.17
2022-07-31T20:38:01.081Z,3.50
2022-07-31T20:40:28.766Z,1.95
2022-07-31T21:02:17.386Z,4.77
2022-07-31T21:04:43.673Z,3.70
2022-07-31T21:07:11.592Z,2.95
2022-07-31T21:09:38.490Z,3.17
2022-07-31T21:12:06.527Z,2.55
2022-07-31T21:14:34.146Z,1.98
2022-07-31T21:17:00.429Z,2.30
2022-07-31T21:19:26.721Z,5.32
2022-07-31T21:21:53.487Z,2.20
2022-07-31T21:24:19.734Z,3.42
2022-07-31T21:26:46.035Z,6.40
2022-07-31T21:29:17.279Z,4.22
2022-07-31T21:31:49.156Z,2.20
2022-07-31T21:34:16.566Z,2.60
2022-07-31T21:36:42.861Z,4.97
2022-07-31T21:39:09.153Z,2.65
2022-07-31T21:41:45.171Z,4.68
2022-07-31T21:44:12.744Z,3.42
2022-07-31T21:46:46.091Z,2.13
2022-07-31T21:49:20.174Z,2.17
2022-07-31T21:51:46.580Z,7.97
2022-07-31T21:54:15.483Z,4.68
2022-07-31T21:56:42.047Z,4.38
2022-07-31T21:59:08.327Z,3.15
2022-07-31T22:01:35.105Z,2.60
2022-07-31T22:04:01.534Z,3.17
2022-07-31T22:06:57.299Z,3.05
2022-07-31T22:09:26.538Z,4.05
2022-07-31T22:12:01.293Z,2.83
2022-07-31T22:14:28.038Z,3.78
2022-07-31T22:16:54.323Z,3.08
2022-07-31T22:19:20.991Z,2.45
2022-07-31T22:21:47.328Z,2.05
2022-07-31T22:24:14.135Z,2.63
2022-07-31T22:27:00.324Z,4.88
2022-07-31T22:29:26.668Z,2.28
2022-07-31T22:31:54.003Z,2.92
2022-07-31T22:34:37.339Z,3.35
2022-07-31T22:37:04.228Z,2.72
2022-07-31T22:39:30.544Z,2.50
2022-07-31T22:42:00.340Z,2.95
2022-07-31T22:44:26.917Z,4.72
2022-07-31T22:46:53.222Z,3.33
2022-07-31T22:49:19.593Z,4.88
2022-07-31T22:51:46.770Z,2.65
2022-07-31T22:54:13.122Z,3.10
2022-07-31T22:56:39.434Z,3.42
2022-07-31T22:59:05.767Z,4.53
2022-07-31T23:01:32.068Z,2.90
2022-07-31T23:03:58.370Z,3.30
2022-07-31T23:06:31.290Z,2.60
2022-07-31T23:08:58.837Z,2.75
2022-07-31T23:11:25.134Z,4.60
2022-07-31T23:13:51.452Z,2.90
2022-07-31T23:16:17.784Z,2.30
2022-07-31T23:18:44.081Z,4.18
2022-07-31T23:21:10.454Z,3.55
2022-07-31T23:23:36.840Z,4.13
2022-07-31T23:26:03.163Z,2.53
2022-07-31T23:28:29.467Z,3.50
2022-07-31T23:30:55.769Z,2.65
2022-07-31T23:33:22.070Z,3.28
2022-07-31T23:35:48.378Z,2.60
2022-07-31T23:38:14.701Z,4.00
2022-07-31T23:40:41.002Z,2.80
2022-07-31T23:43:07.316Z,2.45
2022-07-31T23:45:34.908Z,2.83
2022-07-31T23:48:01.271Z,3.03
2022-07-31T23:50:27.565Z,3.55
2022-07-31T23:52:53.888Z,2.55
2022-07-31T23:55:20.183Z,4.93
2022-07-31T23:57:46.478Z,3.22
